Time;durP1;ratioP1;P1;durP2;ratioP2;P2;SDS_P1;SDS_P2;PMS_P1;PMS_P2;Temp;Humidity;BMP_temperature;BMP_pressure;BME280_temperature;BME280_humidity;BME280_pressure;Samples;Min_cycle;Max_cycle;Signal;HPM_P1;HPM_P2
2022/04/22 00:01:21;;;;;;;10.65;8.98;;;;;;;10.53;64.72;100904.06;4988465;28;20105;-66
2022/04/22 00:03:47;;;;;;;11.65;8.90;;;;;;;10.51;63.99;100905.97;4988380;28;20022;-67
2022/04/22 00:06:13;;;;;;;11.75;9.27;;;;;;;10.47;63.90;100899.38;4988304;28;20057;-66
2022/04/22 00:08:38;;;;;;;13.60;10.07;;;;;;;10.38;65.09;100894.94;4988597;28;20113;-67
2022/04/22 00:13:47;;;;;;;11.68;10.10;;;;;;;10.40;65.14;100907.78;4988261;28;20510;-67
2022/04/22 00:16:13;;;;;;;11.43;9.73;;;;;;;10.37;65.21;100907.06;4988218;28;20034;-66
2022/04/22 00:18:39;;;;;;;13.85;10.15;;;;;;;10.34;65.77;100904.72;4988412;28;20494;-66
2022/04/22 00:21:04;;;;;;;12.35;9.98;;;;;;;10.31;65.84;100906.72;4988558;28;20497;-66
2022/04/22 00:23:30;;;;;;;13.40;10.40;;;;;;;10.29;65.63;100901.66;4999536;28;20033;-66
2022/04/22 00:25:55;;;;;;;11.60;10.40;;;;;;;10.25;66.10;100889.06;4983003;28;20045;-66
2022/04/22 00:28:22;;;;;;;12.23;10.10;;;;;;;10.23;66.19;100898.72;4987492;28;20482;-65
2022/04/22 00:30:47;;;;;;;12.32;10.27;;;;;;;10.22;66.05;100894.47;4988164;28;20034;-66
2022/04/22 00:33:14;;;;;;;13.00;10.68;;;;;;;10.20;65.90;100891.16;5002937;28;20036;-66
2022/04/22 00:35:40;;;;;;;12.60;10.57;;;;;;;10.14;67.29;100889.06;4988054;28;20439;-67
2022/04/22 00:38:05;;;;;;;12.32;10.50;;;;;;;10.10;67.46;100884.13;4988391;28;20057;-65
2022/04/22 00:40:31;;;;;;;12.55;10.85;;;;;;;10.08;67.11;100887.75;4987736;28;20390;-66
2022/04/22 00:42:56;;;;;;;11.80;10.57;;;;;;;10.06;67.44;100879.28;4987287;28;20026;-68
2022/04/22 00:45:21;;;;;;;12.90;11.50;;;;;;;10.07;66.97;100876.56;4987661;28;20093;-66
2022/04/22 00:47:47;;;;;;;13.00;11.50;;;;;;;10.00;67.84;100880.59;4987686;28;20509;-66
2022/04/22 00:50:13;;;;;;;12.13;10.85;;;;;;;10.04;67.60;100876.84;4985373;28;20076;-66
2022/04/22 00:52:39;;;;;;;12.40;11.10;;;;;;;10.01;67.16;100876.25;4983379;28;20289;-66
2022/04/22 00:55:06;;;;;;;12.05;10.85;;;;;;;9.99;67.73;100878.97;4987359;28;20032;-66
2022/04/22 00:57:32;;;;;;;13.85;11.15;;;;;;;9.95;67.69;100877.53;4986804;28;20522;-66
2022/04/22 00:59:58;;;;;;;12.63;11.30;;;;;;;9.91;68.22;100865.75;4987246;28;20033;-66
2022/04/22 01:02:24;;;;;;;13.43;11.75;;;;;;;9.92;68.33;100871.75;4987773;28;20022;-65
2022/04/22 01:10:19;;;;;;;14.68;11.60;;;;;;;9.79;68.91;100851.19;4986922;28;20495;-67
2022/04/22 01:12:44;;;;;;;13.13;11.68;;;;;;;9.77;68.54;100855.66;4986901;28;20144;-66
2022/04/22 01:15:09;;;;;;;13.18;11.70;;;;;;;9.74;68.96;100855.88;4987046;28;20034;-67
2022/04/22 01:17:35;;;;;;;14.95;12.23;;;;;;;9.72;69.40;100856.00;4987369;28;20037;-66
2022/04/22 01:20:01;;;;;;;13.80;12.40;;;;;;;9.60;69.82;100845.78;4985517;28;20382;-66
2022/04/22 01:22:27;;;;;;;14.82;12.50;;;;;;;9.67;69.26;100854.72;4987154;28;21091;-66
2022/04/22 01:24:56;;;;;;;16.17;12.75;;;;;;;9.63;69.57;100856.72;4978499;28;20070;-66
2022/04/22 01:27:23;;;;;;;13.15;11.75;;;;;;;9.57;69.74;100847.66;4982647;28;20034;-66
2022/04/22 01:29:49;;;;;;;13.95;12.05;;;;;;;9.54;69.45;100850.50;4986217;28;20042;-66
2022/04/22 01:32:14;;;;;;;14.02;12.52;;;;;;;9.51;69.57;100842.13;4986560;28;20034;-66
2022/04/22 01:34:42;;;;;;;14.57;12.52;;;;;;;9.51;70.09;100836.94;4986178;28;20063;-66
2022/04/22 01:37:07;;;;;;;14.02;12.23;;;;;;;9.52;70.05;100836.84;4979634;28;20532;-66
2022/04/22 01:39:33;;;;;;;13.50;12.10;;;;;;;9.49;70.65;100839.66;4981318;28;20038;-66
2022/04/22 01:41:58;;;;;;;16.15;12.48;;;;;;;9.47;70.43;100826.03;4984868;28;20029;-65
2022/04/22 01:44:25;;;;;;;13.77;12.27;;;;;;;9.48;70.76;100826.84;4986657;28;20061;-65
2022/04/22 01:46:51;;;;;;;13.45;12.13;;;;;;;9.36;71.10;100813.06;4986677;28;20026;-66
2022/04/22 01:49:16;;;;;;;14.82;12.35;;;;;;;9.43;70.80;100834.97;4986699;28;20034;-66
2022/04/22 01:51:42;;;;;;;14.02;12.43;;;;;;;9.38;71.11;100831.88;5001483;28;20069;-65
2022/04/22 01:54:07;;;;;;;14.05;12.55;;;;;;;9.39;71.24;100833.53;4985433;28;20029;-66
2022/04/22 01:56:32;;;;;;;15.13;12.77;;;;;;;9.36;71.48;100838.13;4986867;28;20489;-66
2022/04/22 01:58:58;;;;;;;14.23;12.73;;;;;;;9.28;71.48;100815.41;4986525;28;20451;-66
2022/04/22 02:01:23;;;;;;;15.27;13.68;;;;;;;9.27;71.77;100818.94;4986362;28;20458;-66
2022/04/22 02:03:49;;;;;;;14.18;12.68;;;;;;;9.28;71.89;100836.13;5001542;28;20108;-66
2022/04/22 02:06:14;;;;;;;15.48;13.85;;;;;;;9.25;71.88;100833.78;4986131;28;20113;-66
2022/04/22 02:08:39;;;;;;;15.45;13.95;;;;;;;9.21;71.71;100829.75;4985459;28;20431;-66
2022/04/22 02:11:05;;;;;;;14.35;12.85;;;;;;;9.24;71.71;100837.31;4986404;28;20489;-66
2022/04/22 02:13:36;;;;;;;14.70;13.20;;;;;;;9.20;71.68;100828.13;4986272;28;20034;-66
2022/04/22 02:16:03;;;;;;;15.07;13.57;;;;;;;9.19;71.65;100827.31;4986444;28;20030;-67
2022/04/22 02:18:28;;;;;;;14.95;13.18;;;;;;;9.19;72.22;100832.47;4986821;28;20048;-66
2022/04/22 02:20:53;;;;;;;14.68;13.13;;;;;;;9.20;72.04;100822.94;4987003;28;20030;-66
2022/04/22 02:23:19;;;;;;;15.70;13.57;;;;;;;9.12;72.11;100820.94;5000323;28;20065;-66
2022/04/22 02:25:44;;;;;;;14.98;13.43;;;;;;;9.12;72.38;100826.13;4984767;28;20133;-66
2022/04/22 02:31:11;;;;;;;15.27;13.35;;;;;;;9.07;72.22;100822.22;4944809;29;20043;-67
2022/04/22 02:33:40;;;;;;;15.57;13.15;;;;;;;9.05;72.85;100830.91;4937100;29;20036;-67
2022/04/22 02:36:06;;;;;;;15.32;12.85;;;;;;;9.11;71.94;100828.81;4925720;29;20114;-67
2022/04/22 02:38:32;;;;;;;15.93;13.18;;;;;;;9.04;72.26;100834.44;4921955;29;20440;-67
2022/04/22 02:46:27;;;;;;;15.68;13.98;;;;;;;8.92;73.17;100813.84;4907159;29;20568;-66
2022/04/22 02:48:57;;;;;;;16.98;13.50;;;;;;;8.96;72.79;100820.44;4910580;29;20032;-66
2022/04/22 02:51:23;;;;;;;15.38;12.95;;;;;;;9.01;72.35;100818.34;4916463;29;20050;-66
2022/04/22 02:53:49;;;;;;;14.73;13.13;;;;;;;9.00;72.21;100812.34;4948250;29;20031;-66
2022/04/22 02:56:16;;;;;;;14.35;12.50;;;;;;;8.99;72.83;100813.25;4948384;29;20042;-67
2022/04/22 02:58:42;;;;;;;15.10;12.75;;;;;;;8.95;72.90;100806.69;4948189;28;20051;-67
2022/04/22 03:01:07;;;;;;;14.98;12.73;;;;;;;8.96;72.47;100810.91;4929885;29;20646;-66
2022/04/22 03:03:33;;;;;;;13.88;12.38;;;;;;;8.92;73.01;100813.84;4929272;29;20054;-66
2022/04/22 03:05:58;;;;;;;14.88;13.27;;;;;;;8.91;73.22;100802.69;4977312;28;20046;-66
2022/04/22 03:08:23;;;;;;;15.98;12.77;;;;;;;8.87;73.26;100803.03;4989355;28;20164;-66
2022/04/22 03:10:49;;;;;;;16.30;12.82;;;;;;;8.86;73.00;100804.78;4989550;28;20034;-66
2022/04/22 03:13:15;;;;;;;15.50;13.07;;;;;;;8.84;73.53;100801.50;4989187;28;20022;-66
2022/04/22 03:15:41;;;;;;;15.30;12.35;;;;;;;8.63;73.60;100772.06;4989475;28;20077;-66
2022/04/22 03:18:07;;;;;;;14.98;12.85;;;;;;;8.71;74.20;100800.75;4989457;28;20030;-66
2022/04/22 03:20:33;;;;;;;14.10;12.20;;;;;;;8.71;73.81;100800.75;4988783;28;20029;-66
2022/04/22 03:22:58;;;;;;;15.43;12.25;;;;;;;8.70;75.23;100797.34;4989408;28;20030;-66
2022/04/22 03:25:24;;;;;;;14.77;12.55;;;;;;;8.66;74.56;100801.09;4989056;28;20077;-67
2022/04/22 03:27:50;;;;;;;15.68;12.20;;;;;;;8.60;74.74;100800.72;4989092;28;20022;-66
2022/04/22 03:30:16;;;;;;;15.70;13.25;;;;;;;8.55;74.72;100795.91;4989100;28;20138;-66
2022/04/22 03:32:41;;;;;;;15.13;12.38;;;;;;;8.56;74.87;100796.72;4989254;28;20395;-66
2022/04/22 03:35:07;;;;;;;13.90;12.40;;;;;;;8.52;75.43;100796.94;4988625;28;20066;-66
2022/04/22 03:37:32;;;;;;;15.43;12.02;;;;;;;8.54;74.56;100790.81;4989225;28;20031;-66
2022/04/22 03:39:57;;;;;;;14.70;12.18;;;;;;;8.41;75.00;100778.81;4989121;28;20113;-66
2022/04/22 03:42:23;;;;;;;14.90;11.63;;;;;;;8.45;75.62;100790.56;4988851;28;20053;-66
2022/04/22 03:44:48;;;;;;;14.38;11.93;;;;;;;8.40;75.77;100786.69;4988767;28;20501;-65
2022/04/22 03:47:14;;;;;;;13.55;12.02;;;;;;;8.40;76.17;100779.75;4987330;28;20033;-66
2022/04/22 03:49:40;;;;;;;14.13;11.57;;;;;;;8.43;76.81;100782.13;4982065;28;20398;-67
2022/04/22 03:52:05;;;;;;;14.15;12.38;;;;;;;8.39;76.23;100780.69;4984010;28;20041;-66
2022/04/22 03:54:31;;;;;;;15.30;12.27;;;;;;;8.44;77.23;100783.75;4987492;28;20018;-66
2022/04/22 03:59:40;;;;;;;14.30;12.77;;;;;;;8.44;77.63;100782.94;4987174;28;20342;-66
2022/04/22 04:02:07;;;;;;;15.13;12.20;;;;;;;8.38;77.72;100760.94;4985862;28;20022;-67
2022/04/22 04:04:33;;;;;;;13.70;12.18;;;;;;;8.42;77.93;100775.28;4983421;28;20164;-67
2022/04/22 04:06:58;;;;;;;16.40;12.98;;;;;;;8.43;78.64;100779.53;4975813;28;20413;-65
2022/04/22 04:17:41;;;;;;;16.60;13.77;;;;;;;8.44;78.78;100773.41;5007066;28;20036;-65
2022/04/22 04:25:35;;;;;;;18.55;15.18;;;;;;;8.47;80.38;100768.00;4988255;28;20092;-66
2022/04/22 04:28:02;;;;;;;16.42;13.85;;;;;;;8.48;79.86;100769.66;4986998;28;20030;-66
2022/04/22 04:30:27;;;;;;;18.50;15.23;;;;;;;8.49;80.24;100771.31;5002526;28;20030;-66
2022/04/22 04:32:53;;;;;;;18.95;15.55;;;;;;;8.51;81.10;100769.44;4988160;28;20352;-65
2022/04/22 04:35:18;;;;;;;17.73;15.95;;;;;;;8.52;80.80;100771.09;4985676;28;20117;-68
2022/04/22 04:37:43;;;;;;;19.17;16.83;;;;;;;8.45;81.54;100764.72;4988294;28;20226;-66
2022/04/22 04:40:09;;;;;;;19.77;17.67;;;;;;;8.52;81.31;100778.84;4987780;28;20462;-66
2022/04/22 04:42:35;;;;;;;19.27;17.17;;;;;;;8.48;81.58;100768.84;4988080;28;20026;-66
2022/04/22 04:45:01;;;;;;;19.58;17.25;;;;;;;8.44;81.72;100762.25;4987599;28;20462;-65
2022/04/22 04:47:26;;;;;;;18.80;16.90;;;;;;;8.51;81.50;100773.78;4987699;28;20045;-65
2022/04/22 04:49:51;;;;;;;19.90;17.80;;;;;;;8.51;81.67;100774.63;4987442;28;20034;-66
2022/04/22 04:52:17;;;;;;;19.40;17.25;;;;;;;8.54;81.83;100783.06;4987624;28;20023;-66
2022/04/22 04:54:42;;;;;;;20.15;18.10;;;;;;;8.50;81.80;100772.97;4988034;28;20337;-66
2022/04/22 04:57:07;;;;;;;21.15;18.90;;;;;;;8.52;82.08;100781.41;4987364;28;20101;-66
2022/04/22 04:59:34;;;;;;;19.85;17.95;;;;;;;8.51;81.65;100769.44;4987364;28;20105;-67
2022/04/22 05:01:59;;;;;;;22.27;19.05;;;;;;;8.51;82.17;100778.97;4987306;28;20079;-66
2022/04/22 05:04:25;;;;;;;21.92;19.63;;;;;;;8.51;82.20;100778.97;4987401;28;20477;-66
2022/04/22 05:06:50;;;;;;;20.73;18.30;;;;;;;8.55;82.18;100779.56;4986432;28;20458;-66
2022/04/22 05:09:15;;;;;;;21.15;18.95;;;;;;;8.51;82.17;100784.94;4986735;28;20034;-66
2022/04/22 05:11:41;;;;;;;21.30;19.10;;;;;;;8.54;82.46;100777.91;4986789;28;20537;-66
2022/04/22 05:14:07;;;;;;;20.67;18.05;;;;;;;8.56;82.08;100765.69;4986915;28;20040;-66
2022/04/22 05:16:32;;;;;;;20.10;18.00;;;;;;;8.56;82.54;100776.03;4985011;28;20030;-66
2022/04/22 05:18:58;;;;;;;21.58;19.33;;;;;;;8.55;82.42;100774.41;4986977;28;20038;-66
2022/04/22 05:21:23;;;;;;;20.23;18.13;;;;;;;8.58;82.33;100774.16;4986187;28;20033;-66
2022/04/22 05:23:49;;;;;;;20.77;18.48;;;;;;;8.57;82.85;100772.50;4986961;28;20046;-66
2022/04/22 05:26:14;;;;;;;20.80;18.67;;;;;;;8.59;82.65;100775.78;4986454;28;20034;-67
2022/04/22 05:28:39;;;;;;;20.98;18.80;;;;;;;8.58;82.73;100768.97;4987305;28;20030;-66
2022/04/22 05:33:50;;;;;;;22.30;20.00;;;;;;;8.60;83.50;100772.28;4986282;28;20049;-66
2022/04/22 05:36:15;;;;;;;21.08;18.88;;;;;;;8.63;83.03;100772.06;4986770;28;20045;-66
2022/04/22 05:38:41;;;;;;;21.55;19.33;;;;;;;8.66;82.76;100771.81;4986711;28;20034;-66
2022/04/22 05:41:06;;;;;;;21.20;19.20;;;;;;;8.66;82.83;100771.81;4985800;28;20030;-66
2022/04/22 05:43:31;;;;;;;22.65;20.27;;;;;;;8.71;82.82;100773.13;4985309;28;20081;-66
2022/04/22 05:45:57;;;;;;;21.00;18.98;;;;;;;8.78;82.44;100781.28;4985874;28;20045;-65
2022/04/22 05:48:22;;;;;;;21.48;19.33;;;;;;;8.79;82.31;100788.09;4986641;28;20038;-65
2022/04/22 05:50:47;;;;;;;21.92;19.60;;;;;;;8.77;82.13;100774.41;4986209;28;20022;-65
2022/04/22 05:53:13;;;;;;;21.65;18.90;;;;;;;8.86;82.39;100788.44;4984939;28;20026;-65
2022/04/22 05:55:38;;;;;;;21.50;19.40;;;;;;;8.89;82.22;100778.69;4986360;28;21142;-65
2022/04/22 05:58:04;;;;;;;21.92;19.73;;;;;;;8.93;82.59;100785.28;4984552;28;20455;-66
2022/04/22 06:00:31;;;;;;;21.70;19.50;;;;;;;8.95;82.19;100782.59;4984271;28;20482;-64
2022/04/22 06:02:57;;;;;;;21.08;19.00;;;;;;;8.94;82.14;100776.56;4983878;28;20064;-65
2022/04/22 06:05:24;;;;;;;21.67;19.55;;;;;;;8.94;82.20;100779.16;4984438;28;20022;-65
2022/04/22 06:10:37;;;;;;;21.30;19.27;;;;;;;8.98;81.39;100772.81;4968192;28;20124;-65
2022/04/22 06:13:03;;;;;;;22.02;19.70;;;;;;;9.00;81.60;100773.53;4985128;28;20467;-65
2022/04/22 06:15:29;;;;;;;21.40;19.15;;;;;;;9.04;81.75;100782.69;4985790;28;20390;-64
2022/04/22 06:17:55;;;;;;;21.52;19.42;;;;;;;9.09;81.62;100779.78;4984797;28;20451;-65
2022/04/22 06:20:20;;;;;;;20.60;18.60;;;;;;;9.19;81.55;100785.06;4989637;28;20030;-65
2022/04/22 06:22:45;;;;;;;21.55;19.45;;;;;;;9.21;81.23;100780.59;4989953;28;20022;-66
2022/04/22 06:25:11;;;;;;;21.65;19.55;;;;;;;9.22;81.30;100779.66;4988099;28;20509;-67
2022/04/22 06:27:39;;;;;;;21.48;19.38;;;;;;;9.22;80.84;100779.66;5009790;28;20026;-65
2022/04/22 06:30:08;;;;;;;20.52;18.40;;;;;;;9.32;80.92;100781.41;5008970;28;20442;-64
2022/04/22 06:32:33;;;;;;;;;;;;;;;9.41;79.72;100784.25;5008903;28;20041;-67
2022/04/22 06:34:59;;;;;;;22.55;20.33;;;;;;;9.27;80.30;100777.53;4989482;28;19928;-65
2022/04/22 06:37:24;;;;;;;21.85;19.67;;;;;;;9.27;80.44;100786.13;4988262;28;20038;-66
2022/04/22 06:48:03;;;;;;;21.90;19.80;;;;;;;9.31;80.32;100779.78;4989309;28;20124;-66
2022/04/22 06:50:29;;;;;;;22.65;20.45;;;;;;;9.40;80.70;100778.22;4989463;28;20066;-65
2022/04/22 06:52:54;;;;;;;22.35;20.00;;;;;;;9.37;80.04;100773.31;4980822;28;20530;-68
2022/04/22 06:55:21;;;;;;;22.77;20.58;;;;;;;9.48;80.42;100775.06;4978869;28;20047;-65
2022/04/22 06:57:50;;;;;;;22.58;20.38;;;;;;;9.56;79.53;100770.09;4987912;28;20022;-67
2022/04/22 07:00:17;;;;;;;22.15;19.98;;;;;;;9.61;79.17;100785.28;4987881;28;20034;-66
2022/04/22 07:02:43;;;;;;;21.67;19.58;;;;;;;9.59;78.97;100775.06;4984611;28;20033;-66
2022/04/22 07:05:12;;;;;;;21.42;19.33;;;;;;;9.57;78.74;100758.78;4967504;28;20042;-67
2022/04/22 07:07:37;;;;;;;21.17;19.05;;;;;;;9.62;78.76;100771.38;4992434;28;20464;-66
2022/04/22 07:10:03;;;;;;;21.52;19.50;;;;;;;9.57;78.82;100769.16;5000588;28;20498;-66
2022/04/22 07:12:31;;;;;;;21.15;19.08;;;;;;;9.60;79.40;100762.94;5008563;28;20378;-67
2022/04/22 07:15:03;;;;;;;21.13;18.85;;;;;;;9.64;78.87;100772.94;5001755;28;20031;-67
2022/04/22 07:17:37;;;;;;;21.63;19.52;;;;;;;9.61;78.83;100764.56;4987707;28;20072;-66
2022/04/22 07:20:09;;;;;;;21.50;19.48;;;;;;;9.66;79.13;100765.03;4977907;28;20255;-67
2022/04/22 07:22:37;;;;;;;21.25;19.25;;;;;;;9.67;79.16;100769.25;4991149;28;20108;-66
2022/04/22 07:25:04;;;;;;;22.08;19.88;;;;;;;9.71;78.61;100766.31;4987719;28;20053;-67
2022/04/22 07:27:33;;;;;;;21.95;19.75;;;;;;;9.83;79.11;100756.75;4987654;28;20042;-67
2022/04/22 07:29:59;;;;;;;;;;;;;;;9.96;78.36;100754.81;4989136;28;20474;-66
2022/04/22 07:32:25;;;;;;;22.90;20.73;;;;;;;9.99;78.32;100752.00;4988209;28;19925;-66
2022/04/22 07:34:51;;;;;;;21.42;19.42;;;;;;;10.07;77.76;100752.19;4987956;28;20042;-66
2022/04/22 07:37:17;;;;;;;21.70;19.63;;;;;;;10.05;77.34;100738.53;4977812;28;20064;-66
2022/04/22 07:39:43;;;;;;;22.70;20.45;;;;;;;10.16;77.23;100752.41;4993953;28;20521;-66
2022/04/22 07:42:14;;;;;;;22.05;19.85;;;;;;;10.28;77.18;100748.84;4998588;28;20025;-67
2022/04/22 07:47:25;;;;;;;21.73;19.73;;;;;;;10.40;76.35;100753.03;4986644;28;20054;-67
2022/04/22 07:49:51;;;;;;;21.52;19.50;;;;;;;10.46;76.34;100752.53;4977273;28;20442;-67
2022/04/22 07:52:16;;;;;;;21.30;19.20;;;;;;;10.50;76.66;100753.94;4986326;28;20026;-66
2022/04/22 07:54:41;;;;;;;21.65;19.52;;;;;;;10.53;75.41;100753.66;4988606;28;20026;-66
2022/04/22 07:57:07;;;;;;;22.50;19.48;;;;;;;10.61;76.08;100755.63;4988363;28;20149;-67
2022/04/22 07:59:33;;;;;;;22.63;20.33;;;;;;;10.70;75.44;100754.84;5003516;28;20418;-66
2022/04/22 08:01:58;;;;;;;22.98;20.77;;;;;;;10.79;75.73;100758.47;4988766;28;20034;-66
2022/04/22 08:04:25;;;;;;;21.67;19.60;;;;;;;10.75;74.85;100757.91;4988369;28;20030;-66
2022/04/22 08:06:51;;;;;;;22.77;20.63;;;;;;;10.83;75.44;100744.28;4988199;28;20057;-66
2022/04/22 08:09:16;;;;;;;21.42;19.33;;;;;;;10.84;73.53;100746.75;4988299;28;20471;-67
2022/04/22 08:11:43;;;;;;;20.95;19.05;;;;;;;10.90;73.47;100741.06;4988080;28;20294;-66
2022/04/22 08:14:12;;;;;;;20.88;18.77;;;;;;;10.92;73.31;100738.31;4988479;28;20022;-67
2022/04/22 08:16:38;;;;;;;20.77;18.77;;;;;;;10.95;73.59;100743.22;4987964;28;20037;-66
2022/04/22 08:19:03;;;;;;;20.80;18.90;;;;;;;11.07;74.65;100746.59;4988361;28;20023;-67
2022/04/22 08:21:33;;;;;;;22.25;20.13;;;;;;;11.15;74.36;100732.00;4988089;28;20037;-66
2022/04/22 08:24:01;;;;;;;21.95;19.85;;;;;;;11.27;72.83;100737.09;4987701;28;20494;-66
2022/04/22 08:26:28;;;;;;;;;;;;;;;11.38;73.38;100730.03;4987944;28;20760;-66
2022/04/22 08:28:54;;;;;;;22.73;20.52;;;;;;;11.49;72.87;100723.09;4988319;28;19921;-66
2022/04/22 08:31:19;;;;;;;21.67;19.67;;;;;;;11.60;72.36;100734.19;4986218;28;20030;-66
2022/04/22 08:33:46;;;;;;;20.45;18.45;;;;;;;11.57;71.36;100737.03;4987857;28;20672;-66
2022/04/22 08:36:12;;;;;;;21.20;18.98;;;;;;;11.56;70.27;100735.38;4985773;28;20022;-66
2022/04/22 08:38:37;;;;;;;20.48;18.48;;;;;;;11.60;71.46;100739.38;4985493;28;20041;-66
2022/04/22 08:41:04;;;;;;;20.00;18.05;;;;;;;11.64;70.85;100732.97;4988177;28;20030;-66
2022/04/22 08:43:30;;;;;;;20.63;18.63;;;;;;;11.77;70.82;100718.88;4987386;28;20114;-66
2022/04/22 08:45:55;;;;;;;20.58;18.50;;;;;;;11.84;70.41;100730.41;4987221;28;20026;-66
2022/04/22 08:51:08;;;;;;;19.42;17.60;;;;;;;11.90;70.43;100724.66;4968902;28;20131;-66
2022/04/22 08:53:35;;;;;;;19.05;17.05;;;;;;;11.89;70.22;100723.03;4970909;28;20080;-66
2022/04/22 08:56:02;;;;;;;19.13;17.20;;;;;;;11.94;68.64;100726.03;4986394;28;20038;-66
2022/04/22 08:58:29;;;;;;;19.58;17.67;;;;;;;12.03;69.71;100720.00;4985848;28;20566;-67
2022/04/22 09:00:57;;;;;;;18.67;16.88;;;;;;;12.10;69.16;100722.88;4986434;28;20477;-66
2022/04/22 09:03:24;;;;;;;18.60;16.65;;;;;;;12.20;68.01;100706.31;4986662;28;20046;-66
2022/04/22 09:05:50;;;;;;;17.88;15.82;;;;;;;12.37;67.87;100711.78;4982385;28;20557;-66
2022/04/22 09:08:16;;;;;;;17.90;16.10;;;;;;;12.42;68.45;100705.19;4967357;28;20030;-66
2022/04/22 09:10:42;;;;;;;19.55;15.43;;;;;;;12.52;67.62;100705.19;4968342;28;20026;-66
2022/04/22 09:13:10;;;;;;;17.08;15.38;;;;;;;12.54;66.97;100711.06;4967669;28;20033;-67
2022/04/22 09:15:38;;;;;;;16.52;14.88;;;;;;;12.58;66.77;100704.63;4967806;28;20026;-67
2022/04/22 09:18:12;;;;;;;16.48;14.68;;;;;;;12.66;67.65;100709.91;4967662;28;20034;-67
2022/04/22 09:20:38;;;;;;;16.08;14.43;;;;;;;12.64;65.03;100688.44;4985424;28;20045;-66
2022/04/22 09:23:24;;;;;;;17.75;14.52;;;;;;;12.75;66.38;100683.06;4986579;28;20022;-66
2022/04/22 09:25:49;;;;;;;15.52;13.98;;;;;;;12.89;66.61;100693.97;4986469;28;20050;-66
2022/04/22 09:28:15;;;;;;;15.63;14.00;;;;;;;12.89;64.94;100693.97;4986339;28;20032;-67
2022/04/22 09:30:41;;;;;;;16.17;14.57;;;;;;;12.90;65.10;100693.84;4987148;28;20030;-66
2022/04/22 09:33:09;;;;;;;16.13;14.43;;;;;;;13.03;64.49;100680.47;4984645;28;20019;-67
2022/04/22 09:42:38;;;;;;;16.75;15.05;;;;;;;13.13;65.33;100683.88;4986328;28;20042;-66
2022/04/22 09:43:51;;;;;;;16.27;14.60;;;;;;;13.22;63.46;100671.78;4986850;28;20115;-66
2022/04/22 09:46:20;;;;;;;16.30;14.40;;;;;;;13.26;63.51;100673.13;4986535;28;20058;-67
2022/04/22 09:48:46;;;;;;;16.08;14.38;;;;;;;13.34;63.86;100669.78;4985880;28;20026;-67
2022/04/22 09:51:24;;;;;;;16.00;14.30;;;;;;;13.39;64.00;100672.78;4986345;28;20030;-66
2022/04/22 09:54:17;;;;;;;15.32;13.73;;;;;;;13.25;62.86;100667.09;4985998;28;20383;-66
2022/04/22 09:56:56;;;;;;;17.45;13.77;;;;;;;13.37;62.92;100659.09;4981211;28;20129;-67
2022/04/22 09:59:26;;;;;;;14.93;13.40;;;;;;;13.53;62.80;100669.66;4985787;28;20034;-66
2022/04/22 10:01:52;;;;;;;15.32;13.68;;;;;;;13.39;60.81;100652.75;4986501;28;20054;-66
2022/04/22 10:04:19;;;;;;;15.35;13.10;;;;;;;13.44;62.52;100666.16;4984220;28;20034;-66
2022/04/22 10:06:46;;;;;;;16.75;13.57;;;;;;;13.44;62.92;100667.94;4985844;28;20073;-66
2022/04/22 10:09:14;;;;;;;15.48;13.88;;;;;;;13.57;62.00;100654.53;4985904;28;20030;-66
2022/04/22 10:11:40;;;;;;;16.90;13.93;;;;;;;13.80;63.17;100661.75;4985359;28;20109;-66
2022/04/22 10:14:09;;;;;;;15.68;14.00;;;;;;;13.82;61.99;100659.84;4986135;28;20034;-66
2022/04/22 10:16:35;;;;;;;15.32;13.18;;;;;;;13.85;61.45;100663.09;4986194;28;20517;-66
2022/04/22 10:19:02;;;;;;;16.52;12.70;;;;;;;13.88;60.40;100654.97;4985903;28;20038;-67
2022/04/22 10:21:28;;;;;;;14.60;12.52;;;;;;;13.94;60.63;100647.38;4985701;28;20045;-66
2022/04/22 10:23:56;;;;;;;20.42;13.65;;;;;;;13.89;58.78;100633.97;4986323;28;20431;-66
2022/04/22 10:26:22;;;;;;;23.42;13.20;;;;;;;14.14;59.27;100640.19;4986328;28;20076;-67
2022/04/22 10:28:48;;;;;;;21.02;13.35;;;;;;;14.24;59.37;100643.50;4986185;28;20034;-67
2022/04/22 10:31:14;;;;;;;14.10;12.50;;;;;;;14.34;59.03;100623.38;4986329;28;20030;-66
2022/04/22 10:33:44;;;;;;;14.90;12.27;;;;;;;14.37;57.62;100644.91;4986048;28;20102;-66
2022/04/22 10:36:18;;;;;;;14.27;11.98;;;;;;;14.42;58.87;100633.03;4966281;28;20094;-66
2022/04/22 10:38:48;;;;;;;16.33;10.38;;;;;;;14.58;56.81;100647.97;4967151;28;20034;-67
2022/04/22 10:41:22;;;;;;;15.05;10.93;;;;;;;14.57;55.97;100638.53;4966835;28;20235;-67
2022/04/22 10:49:39;;;;;;;13.30;10.02;;;;;;;14.54;56.09;100634.41;4981816;28;20096;-67
2022/04/22 10:52:10;;;;;;;12.13;9.70;;;;;;;14.54;57.36;100623.97;4985853;28;20026;-67
2022/04/22 10:55:04;;;;;;;11.98;9.23;;;;;;;14.64;56.81;100633.50;4986466;28;20487;-67
2022/04/22 10:57:33;;;;;;;12.00;9.23;;;;;;;14.53;55.96;100624.16;4985937;28;20042;-67
2022/04/22 11:00:09;;;;;;;13.93;9.68;;;;;;;14.55;56.91;100624.78;4985519;28;20482;-66
2022/04/22 11:02:36;;;;;;;13.52;10.10;;;;;;;14.64;57.70;100613.44;4986135;28;20027;-66
2022/04/22 11:05:20;;;;;;;11.15;9.93;;;;;;;14.57;56.91;100617.66;4968790;28;20561;-67
2022/04/22 11:07:51;;;;;;;12.40;9.95;;;;;;;14.44;58.03;100607.56;4967543;28;20042;-66
2022/04/22 11:10:25;;;;;;;12.20;9.60;;;;;;;14.37;58.10;100613.59;4969835;28;20077;-67
2022/04/22 11:12:54;;;;;;;12.00;9.82;;;;;;;14.35;59.13;100616.34;4970426;28;20077;-67
2022/04/22 11:15:47;;;;;;;13.80;9.80;;;;;;;14.35;58.51;100609.34;4986554;28;20034;-67
2022/04/22 11:18:14;;;;;;;12.77;10.15;;;;;;;14.22;57.94;100603.72;4988721;28;20061;-66
2022/04/22 11:20:51;;;;;;;10.13;8.95;;;;;;;14.22;58.37;100613.31;4988910;28;20030;-66
2022/04/22 11:23:17;;;;;;;12.70;9.38;;;;;;;14.10;56.65;100620.59;4989484;28;20026;-66
2022/04/22 11:25:43;;;;;;;10.52;9.00;;;;;;;14.12;58.09;100608.22;4989129;28;20399;-67
2022/04/22 11:28:09;;;;;;;12.07;9.57;;;;;;;14.05;57.06;100588.97;4985916;28;20030;-66
2022/04/22 11:30:36;;;;;;;12.55;9.38;;;;;;;14.20;57.60;100599.63;4989454;28;20038;-66
2022/04/22 11:33:16;;;;;;;13.65;10.15;;;;;;;14.24;57.92;100612.22;4988863;28;20036;-66
2022/04/22 11:35:42;;;;;;;11.45;9.85;;;;;;;14.12;56.65;100603.00;4989225;28;20097;-66
2022/04/22 11:38:07;;;;;;;13.90;10.27;;;;;;;14.06;57.33;100598.41;4989127;28;20466;-67
2022/04/22 11:40:40;;;;;;;11.93;9.38;;;;;;;14.03;57.03;100620.38;4989189;28;20501;-66
2022/04/22 11:43:10;;;;;;;9.95;8.95;;;;;;;14.01;57.94;100611.09;4989425;28;20034;-66
2022/04/22 11:45:37;;;;;;;13.18;9.23;;;;;;;13.97;57.63;100609.75;4988590;28;20026;-67
2022/04/22 11:48:07;;;;;;;17.38;9.45;;;;;;;13.94;57.40;100612.66;4988472;28;20034;-66
2022/04/22 11:50:38;;;;;;;12.02;9.23;;;;;;;13.93;56.94;100614.44;4988716;28;20026;-66
2022/04/22 11:53:29;;;;;;;10.68;8.95;;;;;;;13.90;57.69;100613.94;4988860;28;20057;-66
2022/04/22 11:55:55;;;;;;;12.18;9.43;;;;;;;13.91;58.26;100600.75;4988666;28;20030;-66
2022/04/22 11:58:23;;;;;;;12.82;9.73;;;;;;;13.96;58.59;100592.47;4988558;28;20451;-67
2022/04/22 12:06:19;;;;;;;10.73;8.55;;;;;;;14.04;58.22;100587.28;4984980;28;20525;-67
2022/04/22 12:08:52;;;;;;;12.50;8.88;;;;;;;14.05;58.28;100602.00;4987181;28;20081;-66
2022/04/22 12:11:17;;;;;;;11.10;8.73;;;;;;;14.03;58.16;100585.66;4986874;28;20056;-66
2022/04/22 12:13:45;;;;;;;11.18;8.75;;;;;;;14.05;57.92;100591.56;4987107;28;20561;-66
2022/04/22 12:16:10;;;;;;;11.88;8.80;;;;;;;14.01;57.13;100575.41;4986155;28;20140;-66
2022/04/22 12:18:36;;;;;;;12.18;8.98;;;;;;;13.94;56.28;100568.34;4985888;28;20118;-66
2022/04/22 12:21:04;;;;;;;12.60;8.80;;;;;;;14.00;56.57;100570.34;4987527;28;20553;-66
2022/04/22 12:23:42;;;;;;;12.25;8.27;;;;;;;14.06;56.63;100572.34;4987460;28;20531;-67